Details for Norwegian Air Shuttle at EGKK




Go Back


Latest METAR
Local Time

EGKK 240750Z 02006KT 340V080 5000 -RA BKN007 12/12 Q1020

24/05/2018, 09:09:21

Description
Results
Norwegian Air Shuttle Logo
Number of Pilots based at EGKK
5 Pilots Based here
Number of Norwegian Air Shuttle Flights Departed from EGKK
3 Flights Departed
Number of Norwegian Air Shuttle Flights Arrived at EGKK
0 Flights Arrived
Number of Norwegian Air Shuttle Schedules Departing from EGKK
8 Schedules
Number of Norwegian Air Shuttle Schedules Arriving at EGKK
13 Schedules
Number of Norwegian Air Shuttle Schedules Departing from EGKK availible today
6 Schedules Today
Number of Norwegian Air Shuttle Schedules Arriving at EGKK availible today
8 Schedules Today
Average Landing Rate at EGKK
-231 fpm
Norwegian Air Shuttle Average Landing Rate at EGKK
0 fpm
Total Fuel Purchased at EGKK by Norwegian Air Shuttle
25,804.38 kgs / 56,888.34 lbs

Pilots Based at EGKK


Pilot ID
Pilot Name
Pilot Rank
No. of Flights
No. of Flying Hours
Dan Symons
111
413.39
George Jones
35
95.53
Maurice Lyon
116
599.01
Matthew Smith
93
700.29
William Shaw
180
430.37
Content